sensor_id;sensor_type;location;lat;lon;timestamp;temperature;humidity
40077;DHT22;25777;47.824;18.982;2023-05-07T00:00:17;12.30;99.90
40077;DHT22;25777;47.824;18.982;2023-05-07T00:02:44;12.50;99.90
40077;DHT22;25777;47.824;18.982;2023-05-07T00:05:10;12.40;99.90
40077;DHT22;25777;47.824;18.982;2023-05-07T00:07:37;12.40;99.90
40077;DHT22;25777;47.824;18.982;2023-05-07T00:12:33;12.50;99.90
40077;DHT22;25777;47.824;18.982;2023-05-07T00:22:55;12.60;99.90
40077;DHT22;25777;47.824;18.982;2023-05-07T00:25:24;12.50;99.90
40077;DHT22;25777;47.824;18.982;2023-05-07T00:27:50;12.50;99.90
40077;DHT22;25777;47.824;18.982;2023-05-07T00:30:16;12.50;99.90
40077;DHT22;25777;47.824;18.982;2023-05-07T00:32:53;12.40;99.90
40077;DHT22;25777;47.824;18.982;2023-05-07T00:37:48;12.40;99.90
40077;DHT22;25777;47.824;18.982;2023-05-07T00:40:14;12.40;99.90
40077;DHT22;25777;47.824;18.982;2023-05-07T00:42:48;12.30;99.90
40077;DHT22;25777;47.824;18.982;2023-05-07T00:45:16;12.30;99.90
40077;DHT22;25777;47.824;18.982;2023-05-07T00:47:44;12.40;99.90
40077;DHT22;25777;47.824;18.982;2023-05-07T00:50:11;12.40;99.90
40077;DHT22;25777;47.824;18.982;2023-05-07T00:52:38;12.50;99.90
40077;DHT22;25777;47.824;18.982;2023-05-07T00:55:05;12.40;99.90
40077;DHT22;25777;47.824;18.982;2023-05-07T00:57:41;12.30;99.90
40077;DHT22;25777;47.824;18.982;2023-05-07T01:00:09;12.20;99.90
40077;DHT22;25777;47.824;18.982;2023-05-07T01:02:36;12.10;99.90
40077;DHT22;25777;47.824;18.982;2023-05-07T01:05:03;12.10;99.90
40077;DHT22;25777;47.824;18.982;2023-05-07T01:07:29;12.20;99.90
40077;DHT22;25777;47.824;18.982;2023-05-07T01:09:57;12.30;99.90
40077;DHT22;25777;47.824;18.982;2023-05-07T01:12:24;12.20;99.90
40077;DHT22;25777;47.824;18.982;2023-05-07T01:14:51;12.20;99.90
40077;DHT22;25777;47.824;18.982;2023-05-07T01:17:17;12.20;99.90
40077;DHT22;25777;47.824;18.982;2023-05-07T01:19:43;12.20;99.90
40077;DHT22;25777;47.824;18.982;2023-05-07T01:22:09;12.20;99.90
40077;DHT22;25777;47.824;18.982;2023-05-07T01:24:40;12.20;99.90
40077;DHT22;25777;47.824;18.982;2023-05-07T01:27:13;12.10;99.90
40077;DHT22;25777;47.824;18.982;2023-05-07T01:29:40;12.00;99.90
40077;DHT22;25777;47.824;18.982;2023-05-07T01:32:06;12.00;99.90
40077;DHT22;25777;47.824;18.982;2023-05-07T01:34:32;12.00;99.90
40077;DHT22;25777;47.824;18.982;2023-05-07T01:37:06;12.00;99.90
40077;DHT22;25777;47.824;18.982;2023-05-07T01:42:03;11.90;99.90
40077;DHT22;25777;47.824;18.982;2023-05-07T01:44:31;12.00;99.90
40077;DHT22;25777;47.824;18.982;2023-05-07T01:46:57;11.90;99.90
40077;DHT22;25777;47.824;18.982;2023-05-07T01:52:00;11.80;99.90
40077;DHT22;25777;47.824;18.982;2023-05-07T01:54:26;11.70;99.90
40077;DHT22;25777;47.824;18.982;2023-05-07T01:56:56;11.70;99.90
40077;DHT22;25777;47.824;18.982;2023-05-07T02:01:55;11.70;99.90
40077;DHT22;25777;47.824;18.982;2023-05-07T02:06:52;11.50;99.90
40077;DHT22;25777;47.824;18.982;2023-05-07T02:09:18;11.50;99.90
40077;DHT22;25777;47.824;18.982;2023-05-07T02:11:52;11.50;99.90
40077;DHT22;25777;47.824;18.982;2023-05-07T02:14:18;11.60;99.90
40077;DHT22;25777;47.824;18.982;2023-05-07T02:16:46;11.60;99.90
40077;DHT22;25777;47.824;18.982;2023-05-07T02:24:09;11.60;99.90
40077;DHT22;25777;47.824;18.982;2023-05-07T02:29:17;11.70;99.90
40077;DHT22;25777;47.824;18.982;2023-05-07T02:31:43;11.70;99.90
40077;DHT22;25777;47.824;18.982;2023-05-07T02:34:09;11.50;99.90
40077;DHT22;25777;47.824;18.982;2023-05-07T02:36:39;11.60;99.90
40077;DHT22;25777;47.824;18.982;2023-05-07T02:41:44;11.50;99.90
40077;DHT22;25777;47.824;18.982;2023-05-07T02:44:12;11.50;99.90
40077;DHT22;25777;47.824;18.982;2023-05-07T02:46:39;11.50;99.90
40077;DHT22;25777;47.824;18.982;2023-05-07T02:49:06;11.50;99.90
40077;DHT22;25777;47.824;18.982;2023-05-07T02:51:39;11.60;99.90
40077;DHT22;25777;47.824;18.982;2023-05-07T02:56:34;11.60;99.90
40077;DHT22;25777;47.824;18.982;2023-05-07T02:59:00;11.60;99.90
40077;DHT22;25777;47.824;18.982;2023-05-07T03:01:33;11.70;99.90
40077;DHT22;25777;47.824;18.982;2023-05-07T03:06:30;11.70;99.90
40077;DHT22;25777;47.824;18.982;2023-05-07T03:11:30;11.60;99.90
40077;DHT22;25777;47.824;18.982;2023-05-07T03:13:57;11.70;99.90
40077;DHT22;25777;47.824;18.982;2023-05-07T03:16:25;11.70;99.90
40077;DHT22;25777;47.824;18.982;2023-05-07T03:18:52;11.70;99.90
40077;DHT22;25777;47.824;18.982;2023-05-07T03:21:20;11.70;99.90
40077;DHT22;25777;47.824;18.982;2023-05-07T03:23:47;11.80;99.90
40077;DHT22;25777;47.824;18.982;2023-05-07T03:26:18;11.70;99.90
40077;DHT22;25777;47.824;18.982;2023-05-07T03:28:45;11.70;99.90
40077;DHT22;25777;47.824;18.982;2023-05-07T03:31:15;11.70;99.90
40077;DHT22;25777;47.824;18.982;2023-05-07T03:33:54;11.80;99.90
40077;DHT22;25777;47.824;18.982;2023-05-07T03:36:21;11.80;99.90
40077;DHT22;25777;47.824;18.982;2023-05-07T03:38:51;11.80;99.90
40077;DHT22;25777;47.824;18.982;2023-05-07T03:41:18;11.80;99.90
40077;DHT22;25777;47.824;18.982;2023-05-07T03:43:45;11.80;99.90
40077;DHT22;25777;47.824;18.982;2023-05-07T03:46:13;11.80;99.90
40077;DHT22;25777;47.824;18.982;2023-05-07T03:48:39;11.80;99.90
40077;DHT22;25777;47.824;18.982;2023-05-07T03:51:05;11.80;99.90
40077;DHT22;25777;47.824;18.982;2023-05-07T03:53:30;11.90;99.90
40077;DHT22;25777;47.824;18.982;2023-05-07T03:55:56;11.80;99.90
40077;DHT22;25777;47.824;18.982;2023-05-07T03:58:23;11.90;99.90
40077;DHT22;25777;47.824;18.982;2023-05-07T04:00:50;11.90;99.90
40077;DHT22;25777;47.824;18.982;2023-05-07T04:03:21;11.90;99.90
40077;DHT22;25777;47.824;18.982;2023-05-07T04:05:51;11.90;99.90
40077;DHT22;25777;47.824;18.982;2023-05-07T04:08:18;12.00;99.90
40077;DHT22;25777;47.824;18.982;2023-05-07T04:10:58;12.00;99.90
40077;DHT22;25777;47.824;18.982;2023-05-07T04:13:27;12.10;99.90
40077;DHT22;25777;47.824;18.982;2023-05-07T04:18:24;12.10;99.90
40077;DHT22;25777;47.824;18.982;2023-05-07T04:23:19;12.20;99.90
40077;DHT22;25777;47.824;18.982;2023-05-07T04:30:45;12.20;99.90
40077;DHT22;25777;47.824;18.982;2023-05-07T04:33:14;12.20;99.90
40077;DHT22;25777;47.824;18.982;2023-05-07T04:35:42;12.20;99.90
40077;DHT22;25777;47.824;18.982;2023-05-07T04:40:36;12.30;99.90
40077;DHT22;25777;47.824;18.982;2023-05-07T04:43:07;12.30;99.90
40077;DHT22;25777;47.824;18.982;2023-05-07T04:48:17;12.40;99.90
40077;DHT22;25777;47.824;18.982;2023-05-07T04:50:47;12.50;99.90
40077;DHT22;25777;47.824;18.982;2023-05-07T04:58:17;12.70;99.90
40077;DHT22;25777;47.824;18.982;2023-05-07T05:03:40;13.00;99.90
40077;DHT22;25777;47.824;18.982;2023-05-07T05:08:36;13.20;99.90
40077;DHT22;25777;47.824;18.982;2023-05-07T05:11:03;13.20;99.90
40077;DHT22;25777;47.824;18.982;2023-05-07T05:13:30;13.30;99.90
40077;DHT22;25777;47.824;18.982;2023-05-07T05:15:58;13.40;99.90
40077;DHT22;25777;47.824;18.982;2023-05-07T05:20:52;13.50;99.90
40077;DHT22;25777;47.824;18.982;2023-05-07T05:23:18;13.70;99.90
40077;DHT22;25777;47.824;18.982;2023-05-07T05:25:44;13.70;99.90
40077;DHT22;25777;47.824;18.982;2023-05-07T05:28:10;13.70;99.90
40077;DHT22;25777;47.824;18.982;2023-05-07T05:35:35;13.70;99.90
40077;DHT22;25777;47.824;18.982;2023-05-07T05:38:03;13.80;99.90
40077;DHT22;25777;47.824;18.982;2023-05-07T05:40:28;13.80;99.90
40077;DHT22;25777;47.824;18.982;2023-05-07T05:42:55;13.90;99.90
40077;DHT22;25777;47.824;18.982;2023-05-07T05:45:20;14.00;99.90
40077;DHT22;25777;47.824;18.982;2023-05-07T05:47:47;14.20;99.90
40077;DHT22;25777;47.824;18.982;2023-05-07T05:53:16;14.40;99.90
40077;DHT22;25777;47.824;18.982;2023-05-07T05:55:42;14.60;99.90
40077;DHT22;25777;47.824;18.982;2023-05-07T05:58:09;14.80;99.90
40077;DHT22;25777;47.824;18.982;2023-05-07T06:00:35;14.80;99.90
40077;DHT22;25777;47.824;18.982;2023-05-07T06:03:02;14.90;99.90
40077;DHT22;25777;47.824;18.982;2023-05-07T06:05:39;15.00;99.90
40077;DHT22;25777;47.824;18.982;2023-05-07T06:08:06;15.10;99.90
40077;DHT22;25777;47.824;18.982;2023-05-07T06:10:43;15.20;99.90
40077;DHT22;25777;47.824;18.982;2023-05-07T06:13:08;15.40;99.90
40077;DHT22;25777;47.824;18.982;2023-05-07T06:18:38;15.70;99.90
40077;DHT22;25777;47.824;18.982;2023-05-07T06:21:04;16.00;99.90
40077;DHT22;25777;47.824;18.982;2023-05-07T06:23:31;16.10;99.90
40077;DHT22;25777;47.824;18.982;2023-05-07T06:26:05;16.10;99.90
40077;DHT22;25777;47.824;18.982;2023-05-07T06:28:31;16.10;99.90
40077;DHT22;25777;47.824;18.982;2023-05-07T06:39:14;16.40;99.90
40077;DHT22;25777;47.824;18.982;2023-05-07T06:41:40;16.60;99.90
40077;DHT22;25777;47.824;18.982;2023-05-07T06:44:06;16.70;99.90
40077;DHT22;25777;47.824;18.982;2023-05-07T06:49:09;17.10;99.90
40077;DHT22;25777;47.824;18.982;2023-05-07T06:51:41;17.30;99.90
40077;DHT22;25777;47.824;18.982;2023-05-07T06:54:19;17.60;99.90
40077;DHT22;25777;47.824;18.982;2023-05-07T06:56:47;17.80;99.90
40077;DHT22;25777;47.824;18.982;2023-05-07T06:59:13;17.80;99.90
40077;DHT22;25777;47.824;18.982;2023-05-07T07:04:26;18.10;99.90
40077;DHT22;25777;47.824;18.982;2023-05-07T07:06:54;18.30;99.90
40077;DHT22;25777;47.824;18.982;2023-05-07T07:09:34;18.30;99.90
40077;DHT22;25777;47.824;18.982;2023-05-07T07:12:01;18.50;99.90
40077;DHT22;25777;47.824;18.982;2023-05-07T07:14:27;18.30;99.90
40077;DHT22;25777;47.824;18.982;2023-05-07T07:16:53;18.40;99.90
40077;DHT22;25777;47.824;18.982;2023-05-07T07:19:19;18.40;99.90
40077;DHT22;25777;47.824;18.982;2023-05-07T07:21:45;18.60;99.90
40077;DHT22;25777;47.824;18.982;2023-05-07T07:24:13;18.80;99.90
40077;DHT22;25777;47.824;18.982;2023-05-07T07:26:39;19.00;99.90
40077;DHT22;25777;47.824;18.982;2023-05-07T07:29:06;18.70;99.90
40077;DHT22;25777;47.824;18.982;2023-05-07T07:31:33;18.80;99.90
40077;DHT22;25777;47.824;18.982;2023-05-07T07:34:00;19.10;99.90
40077;DHT22;25777;47.824;18.982;2023-05-07T07:36:27;19.30;99.90
40077;DHT22;25777;47.824;18.982;2023-05-07T07:38:53;19.50;99.90
40077;DHT22;25777;47.824;18.982;2023-05-07T07:41:19;19.60;99.90
40077;DHT22;25777;47.824;18.982;2023-05-07T07:43:50;19.60;99.90
40077;DHT22;25777;47.824;18.982;2023-05-07T07:46:17;19.50;99.90
40077;DHT22;25777;47.824;18.982;2023-05-07T07:48:42;19.90;99.90
40077;DHT22;25777;47.824;18.982;2023-05-07T07:51:11;20.10;99.90
40077;DHT22;25777;47.824;18.982;2023-05-07T07:53:37;19.80;99.90
40077;DHT22;25777;47.824;18.982;2023-05-07T07:56:03;20.10;99.90
40077;DHT22;25777;47.824;18.982;2023-05-07T07:58:28;20.20;99.90
40077;DHT22;25777;47.824;18.982;2023-05-07T08:00:54;20.20;99.90
40077;DHT22;25777;47.824;18.982;2023-05-07T08:03:21;20.10;99.90
40077;DHT22;25777;47.824;18.982;2023-05-07T08:05:47;20.30;99.90
40077;DHT22;25777;47.824;18.982;2023-05-07T08:08:12;20.40;99.90
40077;DHT22;25777;47.824;18.982;2023-05-07T08:10:38;20.50;99.90
40077;DHT22;25777;47.824;18.982;2023-05-07T08:13:05;20.70;99.90
40077;DHT22;25777;47.824;18.982;2023-05-07T08:15:32;20.70;99.90
40077;DHT22;25777;47.824;18.982;2023-05-07T08:17:58;21.00;99.90
40077;DHT22;25777;47.824;18.982;2023-05-07T08:20:25;21.10;99.90
40077;DHT22;25777;47.824;18.982;2023-05-07T08:22:53;21.30;99.90
40077;DHT22;25777;47.824;18.982;2023-05-07T08:27:50;21.30;99.90
40077;DHT22;25777;47.824;18.982;2023-05-07T08:30:16;21.50;99.90
40077;DHT22;25777;47.824;18.982;2023-05-07T08:32:43;21.60;99.90
40077;DHT22;25777;47.824;18.982;2023-05-07T08:35:13;21.80;99.90
40077;DHT22;25777;47.824;18.982;2023-05-07T08:37:39;22.00;99.30
40077;DHT22;25777;47.824;18.982;2023-05-07T08:40:05;21.90;96.70
40077;DHT22;25777;47.824;18.982;2023-05-07T08:45:03;21.70;96.90
40077;DHT22;25777;47.824;18.982;2023-05-07T08:47:55;21.70;94.70
40077;DHT22;25777;47.824;18.982;2023-05-07T08:50:19;21.90;98.20
40077;DHT22;25777;47.824;18.982;2023-05-07T08:55:18;22.50;93.70
40077;DHT22;25777;47.824;18.982;2023-05-07T08:57:44;22.50;93.10
40077;DHT22;25777;47.824;18.982;2023-05-07T09:00:11;22.20;93.70
40077;DHT22;25777;47.824;18.982;2023-05-07T09:02:37;22.50;95.00
40077;DHT22;25777;47.824;18.982;2023-05-07T09:07:34;22.30;93.50
40077;DHT22;25777;47.824;18.982;2023-05-07T09:10:03;22.20;91.90
40077;DHT22;25777;47.824;18.982;2023-05-07T09:12:37;22.30;93.60
40077;DHT22;25777;47.824;18.982;2023-05-07T09:15:04;22.10;91.40
40077;DHT22;25777;47.824;18.982;2023-05-07T09:17:31;21.90;93.40
40077;DHT22;25777;47.824;18.982;2023-05-07T09:20:03;21.80;93.10
40077;DHT22;25777;47.824;18.982;2023-05-07T09:22:38;22.50;95.20
40077;DHT22;25777;47.824;18.982;2023-05-07T09:25:06;23.00;92.50
40077;DHT22;25777;47.824;18.982;2023-05-07T09:27:33;23.10;88.50
40077;DHT22;25777;47.824;18.982;2023-05-07T09:29:58;22.60;92.40
40077;DHT22;25777;47.824;18.982;2023-05-07T09:32:24;22.70;91.40
40077;DHT22;25777;47.824;18.982;2023-05-07T09:34:51;23.10;91.30
40077;DHT22;25777;47.824;18.982;2023-05-07T09:37:18;23.60;93.10
40077;DHT22;25777;47.824;18.982;2023-05-07T09:39:45;23.30;90.70
40077;DHT22;25777;47.824;18.982;2023-05-07T09:42:11;23.40;89.00
40077;DHT22;25777;47.824;18.982;2023-05-07T09:44:38;24.10;91.30
40077;DHT22;25777;47.824;18.982;2023-05-07T09:47:05;24.20;88.20
40077;DHT22;25777;47.824;18.982;2023-05-07T09:49:34;23.60;83.80
40077;DHT22;25777;47.824;18.982;2023-05-07T09:52:01;23.60;90.60
40077;DHT22;25777;47.824;18.982;2023-05-07T09:54:27;23.80;87.80
40077;DHT22;25777;47.824;18.982;2023-05-07T09:56:56;23.70;81.90
40077;DHT22;25777;47.824;18.982;2023-05-07T09:59:22;24.30;85.80
40077;DHT22;25777;47.824;18.982;2023-05-07T10:01:48;24.00;80.20
40077;DHT22;25777;47.824;18.982;2023-05-07T10:04:14;24.40;79.50
40077;DHT22;25777;47.824;18.982;2023-05-07T10:09:10;24.60;78.00
40077;DHT22;25777;47.824;18.982;2023-05-07T10:11:36;24.60;79.70
40077;DHT22;25777;47.824;18.982;2023-05-07T10:14:04;24.10;75.80
40077;DHT22;25777;47.824;18.982;2023-05-07T10:16:35;24.40;78.70
40077;DHT22;25777;47.824;18.982;2023-05-07T10:19:07;23.90;75.80
40077;DHT22;25777;47.824;18.982;2023-05-07T10:21:43;24.70;81.40
40077;DHT22;25777;47.824;18.982;2023-05-07T10:24:19;24.10;76.30
40077;DHT22;25777;47.824;18.982;2023-05-07T10:29:15;25.10;77.50
40077;DHT22;25777;47.824;18.982;2023-05-07T10:34:35;25.40;71.90
40077;DHT22;25777;47.824;18.982;2023-05-07T10:39:37;24.70;68.70
40077;DHT22;25777;47.824;18.982;2023-05-07T10:42:10;24.20;72.50
40077;DHT22;25777;47.824;18.982;2023-05-07T10:44:36;24.60;78.60
40077;DHT22;25777;47.824;18.982;2023-05-07T10:47:06;24.80;73.40
40077;DHT22;25777;47.824;18.982;2023-05-07T10:52:21;25.30;72.20
40077;DHT22;25777;47.824;18.982;2023-05-07T11:03:04;24.50;73.60
40077;DHT22;25777;47.824;18.982;2023-05-07T11:05:32;25.00;74.00
40077;DHT22;25777;47.824;18.982;2023-05-07T11:07:59;24.10;76.30
40077;DHT22;25777;47.824;18.982;2023-05-07T11:13:15;24.30;72.30
40077;DHT22;25777;47.824;18.982;2023-05-07T11:15:45;24.40;69.20
40077;DHT22;25777;47.824;18.982;2023-05-07T11:18:12;24.50;72.00
40077;DHT22;25777;47.824;18.982;2023-05-07T11:26:10;24.70;73.10
40077;DHT22;25777;47.824;18.982;2023-05-07T11:31:10;24.30;73.30
40077;DHT22;25777;47.824;18.982;2023-05-07T11:33:38;23.90;76.20
40077;DHT22;25777;47.824;18.982;2023-05-07T11:38:37;22.70;76.20
40077;DHT22;25777;47.824;18.982;2023-05-07T11:41:04;22.20;74.00
40077;DHT22;25777;47.824;18.982;2023-05-07T11:43:31;21.90;77.20
40077;DHT22;25777;47.824;18.982;2023-05-07T11:46:10;22.20;77.50
40077;DHT22;25777;47.824;18.982;2023-05-07T11:48:36;22.40;77.00
40077;DHT22;25777;47.824;18.982;2023-05-07T11:51:04;22.00;75.00
40077;DHT22;25777;47.824;18.982;2023-05-07T11:53:37;21.80;78.00
40077;DHT22;25777;47.824;18.982;2023-05-07T11:56:08;22.50;77.80
40077;DHT22;25777;47.824;18.982;2023-05-07T11:58:36;23.20;79.00
40077;DHT22;25777;47.824;18.982;2023-05-07T12:03:33;22.70;75.90
40077;DHT22;25777;47.824;18.982;2023-05-07T12:06:02;21.90;75.20
40077;DHT22;25777;47.824;18.982;2023-05-07T12:08:28;21.70;77.30
40077;DHT22;25777;47.824;18.982;2023-05-07T12:10:54;22.40;78.00
40077;DHT22;25777;47.824;18.982;2023-05-07T12:13:24;23.00;72.40
40077;DHT22;25777;47.824;18.982;2023-05-07T12:18:24;23.00;70.80
40077;DHT22;25777;47.824;18.982;2023-05-07T12:20:50;22.90;75.20
40077;DHT22;25777;47.824;18.982;2023-05-07T12:23:18;23.60;73.70
40077;DHT22;25777;47.824;18.982;2023-05-07T12:25:45;24.00;71.80
40077;DHT22;25777;47.824;18.982;2023-05-07T12:28:17;24.10;70.40
40077;DHT22;25777;47.824;18.982;2023-05-07T12:30:44;24.40;71.30
40077;DHT22;25777;47.824;18.982;2023-05-07T12:35:40;24.80;71.30
40077;DHT22;25777;47.824;18.982;2023-05-07T12:38:10;24.30;68.90
40077;DHT22;25777;47.824;18.982;2023-05-07T12:40:47;24.50;71.10
40077;DHT22;25777;47.824;18.982;2023-05-07T12:45:54;24.80;66.90
40077;DHT22;25777;47.824;18.982;2023-05-07T12:48:21;24.60;68.20
40077;DHT22;25777;47.824;18.982;2023-05-07T12:50:54;24.80;68.00
40077;DHT22;25777;47.824;18.982;2023-05-07T12:55:50;23.90;70.10
40077;DHT22;25777;47.824;18.982;2023-05-07T12:58:24;22.70;69.90
40077;DHT22;25777;47.824;18.982;2023-05-07T13:00:50;22.40;74.40
40077;DHT22;25777;47.824;18.982;2023-05-07T13:03:26;23.40;74.10
40077;DHT22;25777;47.824;18.982;2023-05-07T13:08:26;23.80;66.90
40077;DHT22;25777;47.824;18.982;2023-05-07T13:10:53;23.30;71.40
40077;DHT22;25777;47.824;18.982;2023-05-07T13:13:20;22.80;72.40
40077;DHT22;25777;47.824;18.982;2023-05-07T13:15:47;23.30;71.60
40077;DHT22;25777;47.824;18.982;2023-05-07T13:20:44;24.10;67.60
40077;DHT22;25777;47.824;18.982;2023-05-07T13:25:47;23.90;67.30
40077;DHT22;25777;47.824;18.982;2023-05-07T13:28:13;24.00;66.80
40077;DHT22;25777;47.824;18.982;2023-05-07T13:30:41;24.20;68.10
40077;DHT22;25777;47.824;18.982;2023-05-07T13:33:07;24.20;64.80
40077;DHT22;25777;47.824;18.982;2023-05-07T13:35:33;24.20;63.40
40077;DHT22;25777;47.824;18.982;2023-05-07T13:43:03;23.80;63.40
40077;DHT22;25777;47.824;18.982;2023-05-07T13:45:29;23.80;67.40
40077;DHT22;25777;47.824;18.982;2023-05-07T13:47:56;23.90;62.90
40077;DHT22;25777;47.824;18.982;2023-05-07T13:50:26;23.40;61.90
40077;DHT22;25777;47.824;18.982;2023-05-07T13:52:55;23.70;63.00
40077;DHT22;25777;47.824;18.982;2023-05-07T13:55:23;23.80;61.80
40077;DHT22;25777;47.824;18.982;2023-05-07T14:03:04;23.30;66.30
40077;DHT22;25777;47.824;18.982;2023-05-07T14:05:30;23.30;61.90
40077;DHT22;25777;47.824;18.982;2023-05-07T14:08:00;23.60;64.10
40077;DHT22;25777;47.824;18.982;2023-05-07T14:10:26;23.50;64.80
40077;DHT22;25777;47.824;18.982;2023-05-07T14:12:53;23.60;64.30
40077;DHT22;25777;47.824;18.982;2023-05-07T14:15:27;22.90;64.50
40077;DHT22;25777;47.824;18.982;2023-05-07T14:18:02;22.90;62.60
40077;DHT22;25777;47.824;18.982;2023-05-07T14:20:34;23.00;63.70
40077;DHT22;25777;47.824;18.982;2023-05-07T14:23:02;23.30;63.60
40077;DHT22;25777;47.824;18.982;2023-05-07T14:25:34;23.50;64.80
40077;DHT22;25777;47.824;18.982;2023-05-07T14:28:06;23.60;64.60
40077;DHT22;25777;47.824;18.982;2023-05-07T14:35:50;23.00;60.60
40077;DHT22;25777;47.824;18.982;2023-05-07T14:38:18;23.20;62.00
40077;DHT22;25777;47.824;18.982;2023-05-07T14:40:45;23.20;62.00
40077;DHT22;25777;47.824;18.982;2023-05-07T14:43:11;22.90;61.80
40077;DHT22;25777;47.824;18.982;2023-05-07T14:45:36;22.90;61.20
40077;DHT22;25777;47.824;18.982;2023-05-07T14:48:09;22.60;62.40
40077;DHT22;25777;47.824;18.982;2023-05-07T14:50:46;22.40;61.60
40077;DHT22;25777;47.824;18.982;2023-05-07T14:53:28;22.50;63.80
40077;DHT22;25777;47.824;18.982;2023-05-07T14:55:54;22.30;63.70
40077;DHT22;25777;47.824;18.982;2023-05-07T15:00:51;22.20;65.90
40077;DHT22;25777;47.824;18.982;2023-05-07T15:05:57;21.70;66.80
40077;DHT22;25777;47.824;18.982;2023-05-07T15:13:38;22.00;68.20
40077;DHT22;25777;47.824;18.982;2023-05-07T15:16:10;22.00;66.70
40077;DHT22;25777;47.824;18.982;2023-05-07T15:18:35;21.80;65.90
40077;DHT22;25777;47.824;18.982;2023-05-07T15:21:03;22.00;69.80
40077;DHT22;25777;47.824;18.982;2023-05-07T15:23:34;21.90;66.80
40077;DHT22;25777;47.824;18.982;2023-05-07T15:26:00;21.80;68.20
40077;DHT22;25777;47.824;18.982;2023-05-07T15:28:27;21.80;68.10
40077;DHT22;25777;47.824;18.982;2023-05-07T15:30:54;21.70;67.60
40077;DHT22;25777;47.824;18.982;2023-05-07T15:33:20;21.50;67.70
40077;DHT22;25777;47.824;18.982;2023-05-07T15:35:48;21.40;69.60
40077;DHT22;25777;47.824;18.982;2023-05-07T15:38:15;21.40;66.40
40077;DHT22;25777;47.824;18.982;2023-05-07T15:40:42;21.50;66.90
40077;DHT22;25777;47.824;18.982;2023-05-07T15:43:08;21.60;65.90
40077;DHT22;25777;47.824;18.982;2023-05-07T15:45:39;21.30;65.90
40077;DHT22;25777;47.824;18.982;2023-05-07T15:50:36;20.90;75.00
40077;DHT22;25777;47.824;18.982;2023-05-07T15:53:03;20.60;75.60
40077;DHT22;25777;47.824;18.982;2023-05-07T15:55:31;20.50;76.00
40077;DHT22;25777;47.824;18.982;2023-05-07T15:57:59;20.80;69.60
40077;DHT22;25777;47.824;18.982;2023-05-07T16:00:25;20.90;66.50
40077;DHT22;25777;47.824;18.982;2023-05-07T16:02:54;20.80;67.70
40077;DHT22;25777;47.824;18.982;2023-05-07T16:07:53;20.60;67.10
40077;DHT22;25777;47.824;18.982;2023-05-07T16:10:19;20.60;68.30
40077;DHT22;25777;47.824;18.982;2023-05-07T16:12:45;20.60;68.90
40077;DHT22;25777;47.824;18.982;2023-05-07T16:15:11;20.60;71.00
40077;DHT22;25777;47.824;18.982;2023-05-07T16:17:45;20.20;70.60
40077;DHT22;25777;47.824;18.982;2023-05-07T16:25:16;19.50;73.90
40077;DHT22;25777;47.824;18.982;2023-05-07T16:27:41;19.80;77.30
40077;DHT22;25777;47.824;18.982;2023-05-07T16:30:09;19.50;76.90
40077;DHT22;25777;47.824;18.982;2023-05-07T16:37:42;19.30;77.60
40077;DHT22;25777;47.824;18.982;2023-05-07T16:40:16;19.20;76.40
40077;DHT22;25777;47.824;18.982;2023-05-07T16:42:42;19.30;79.20
40077;DHT22;25777;47.824;18.982;2023-05-07T16:45:19;19.10;75.30
40077;DHT22;25777;47.824;18.982;2023-05-07T16:47:48;19.20;72.90
40077;DHT22;25777;47.824;18.982;2023-05-07T16:52:43;19.00;72.70
40077;DHT22;25777;47.824;18.982;2023-05-07T16:55:09;19.10;73.80
40077;DHT22;25777;47.824;18.982;2023-05-07T16:57:36;19.00;72.70
40077;DHT22;25777;47.824;18.982;2023-05-07T17:02:33;18.90;71.90
40077;DHT22;25777;47.824;18.982;2023-05-07T17:12:46;18.60;76.10
40077;DHT22;25777;47.824;18.982;2023-05-07T17:15:12;18.50;77.00
40077;DHT22;25777;47.824;18.982;2023-05-07T17:22:41;18.20;77.40
40077;DHT22;25777;47.824;18.982;2023-05-07T17:25:15;18.10;79.00
40077;DHT22;25777;47.824;18.982;2023-05-07T17:27:41;18.00;79.70
40077;DHT22;25777;47.824;18.982;2023-05-07T17:30:09;17.80;78.90
40077;DHT22;25777;47.824;18.982;2023-05-07T17:32:35;17.70;80.70
40077;DHT22;25777;47.824;18.982;2023-05-07T17:35:12;17.60;80.20
40077;DHT22;25777;47.824;18.982;2023-05-07T17:37:38;17.50;79.90
40077;DHT22;25777;47.824;18.982;2023-05-07T17:40:12;17.40;80.20
40077;DHT22;25777;47.824;18.982;2023-05-07T17:42:38;17.30;81.60
40077;DHT22;25777;47.824;18.982;2023-05-07T17:47:41;17.10;81.60
40077;DHT22;25777;47.824;18.982;2023-05-07T17:52:43;17.00;82.70
40077;DHT22;25777;47.824;18.982;2023-05-07T17:55:09;16.80;83.00
40077;DHT22;25777;47.824;18.982;2023-05-07T18:00:08;16.70;83.00
40077;DHT22;25777;47.824;18.982;2023-05-07T18:05:10;16.60;82.90
40077;DHT22;25777;47.824;18.982;2023-05-07T18:07:42;16.50;83.50
40077;DHT22;25777;47.824;18.982;2023-05-07T18:13:00;16.30;82.50
40077;DHT22;25777;47.824;18.982;2023-05-07T18:15:28;16.20;84.40
40077;DHT22;25777;47.824;18.982;2023-05-07T18:20:24;15.90;84.10
40077;DHT22;25777;47.824;18.982;2023-05-07T18:22:50;15.90;82.20
40077;DHT22;25777;47.824;18.982;2023-05-07T18:25:16;16.00;82.10
40077;DHT22;25777;47.824;18.982;2023-05-07T18:27:42;16.00;81.70
40077;DHT22;25777;47.824;18.982;2023-05-07T18:30:09;15.90;81.90
40077;DHT22;25777;47.824;18.982;2023-05-07T18:35:03;15.50;84.10
40077;DHT22;25777;47.824;18.982;2023-05-07T18:37:32;15.20;87.60
40077;DHT22;25777;47.824;18.982;2023-05-07T18:39:57;14.80;90.10
40077;DHT22;25777;47.824;18.982;2023-05-07T18:42:27;14.70;91.40
40077;DHT22;25777;47.824;18.982;2023-05-07T18:44:53;14.70;90.50
40077;DHT22;25777;47.824;18.982;2023-05-07T18:47:19;14.60;92.00
40077;DHT22;25777;47.824;18.982;2023-05-07T18:49:45;14.50;91.30
40077;DHT22;25777;47.824;18.982;2023-05-07T18:52:16;14.50;91.20
40077;DHT22;25777;47.824;18.982;2023-05-07T18:54:51;14.40;92.00
40077;DHT22;25777;47.824;18.982;2023-05-07T19:02:21;14.30;92.90
40077;DHT22;25777;47.824;18.982;2023-05-07T19:07:22;13.80;94.20
40077;DHT22;25777;47.824;18.982;2023-05-07T19:09:57;13.80;93.80
40077;DHT22;25777;47.824;18.982;2023-05-07T19:12:29;14.00;92.00
40077;DHT22;25777;47.824;18.982;2023-05-07T19:14:55;14.30;91.50
40077;DHT22;25777;47.824;18.982;2023-05-07T19:17:20;14.40;90.90
40077;DHT22;25777;47.824;18.982;2023-05-07T19:19:47;14.50;91.70
40077;DHT22;25777;47.824;18.982;2023-05-07T19:22:13;14.50;91.50